createdAt,value
2022-11-05T00:00:19.806Z,15.12
2022-11-05T00:03:04.840Z,15.23
2022-11-05T00:05:50.887Z,15.20
2022-11-05T00:08:36.390Z,15.21
2022-11-05T00:11:03.137Z,15.18
2022-11-05T00:13:48.692Z,15.16
2022-11-05T00:16:41.498Z,15.13
2022-11-05T00:19:09.131Z,15.05
2022-11-05T00:21:57.937Z,15.07
2022-11-05T00:24:43.520Z,15.02
2022-11-05T00:27:10.672Z,15.11
2022-11-05T00:29:38.110Z,15.20
2022-11-05T00:32:05.291Z,15.16
2022-11-05T00:34:32.132Z,15.16
2022-11-05T00:36:59.043Z,15.25
2022-11-05T00:39:25.999Z,15.26
2022-11-05T00:42:11.606Z,15.28
2022-11-05T00:44:57.331Z,15.21
2022-11-05T00:47:43.054Z,15.18
2022-11-05T00:50:10.951Z,15.20
2022-11-05T00:52:57.421Z,15.26
2022-11-05T00:55:30.649Z,15.26
2022-11-05T00:57:57.888Z,15.36
2022-11-05T01:00:26.871Z,15.35
2022-11-05T01:02:54.012Z,15.34
2022-11-05T01:05:21.019Z,15.37
2022-11-05T01:07:47.880Z,15.56
2022-11-05T01:10:15.025Z,15.41
2022-11-05T01:12:41.870Z,15.48
2022-11-05T01:15:09.558Z,15.50
2022-11-05T01:17:36.681Z,15.38
2022-11-05T01:20:04.317Z,15.45
2022-11-05T01:22:31.236Z,15.26
2022-11-05T01:24:58.107Z,15.19
2022-11-05T01:27:25.027Z,15.05
2022-11-05T01:29:51.861Z,14.95
2022-11-05T01:32:18.689Z,14.89
2022-11-05T01:34:45.531Z,14.80
2022-11-05T01:37:13.787Z,14.88
2022-11-05T01:39:40.714Z,14.76
2022-11-05T01:42:22.994Z,14.71
2022-11-05T01:44:59.934Z,14.74
2022-11-05T01:47:46.276Z,14.84
2022-11-05T01:50:18.885Z,14.69
2022-11-05T01:52:47.453Z,14.82
2022-11-05T01:55:20.989Z,14.84
2022-11-05T01:57:47.932Z,14.95
2022-11-05T02:00:16.722Z,15.12
2022-11-05T02:02:44.335Z,14.98
2022-11-05T02:05:12.757Z,14.95
2022-11-05T02:07:40.940Z,15.05
2022-11-05T02:10:18.006Z,14.84
2022-11-05T02:12:46.788Z,14.99
2022-11-05T02:15:16.159Z,15.08
2022-11-05T02:17:53.376Z,14.75
2022-11-05T02:21:16.862Z,14.62
2022-11-05T02:24:05.004Z,14.62
2022-11-05T02:26:34.879Z,14.53
2022-11-05T02:29:43.139Z,14.66
2022-11-05T02:32:12.799Z,14.93
2022-11-05T02:35:10.151Z,14.87
2022-11-05T02:37:44.965Z,14.79
2022-11-05T02:40:17.684Z,14.81
2022-11-05T02:43:06.000Z,14.82
2022-11-05T02:45:42.446Z,15.14
2022-11-05T02:48:15.366Z,15.42
2022-11-05T02:51:06.880Z,15.69
2022-11-05T02:53:42.722Z,15.87
2022-11-05T02:56:17.146Z,15.87
2022-11-05T02:58:44.026Z,15.33
2022-11-05T03:01:14.385Z,14.92
2022-11-05T03:03:46.059Z,14.91
2022-11-05T03:06:21.914Z,15.29
2022-11-05T03:09:10.182Z,15.51
2022-11-05T03:11:56.408Z,15.59
2022-11-05T03:14:54.081Z,15.54
2022-11-05T03:17:55.137Z,15.86
2022-11-05T03:20:26.573Z,16.22
2022-11-05T03:23:02.415Z,16.26
2022-11-05T03:25:32.195Z,16.30
2022-11-05T03:28:05.149Z,15.64
2022-11-05T03:30:35.692Z,15.21
2022-11-05T03:33:09.126Z,15.13
2022-11-05T03:35:40.514Z,15.07
2022-11-05T03:38:12.543Z,15.58
2022-11-05T03:40:42.818Z,15.88
2022-11-05T03:43:10.172Z,15.95
2022-11-05T03:45:44.348Z,15.90
2022-11-05T03:48:14.687Z,16.03
2022-11-05T03:50:56.043Z,16.07
2022-11-05T03:53:28.152Z,16.09
2022-11-05T03:55:59.342Z,16.05
2022-11-05T03:58:27.300Z,15.95
2022-11-05T04:00:54.291Z,16.28
2022-11-05T04:03:21.342Z,16.34
2022-11-05T04:06:08.655Z,16.49
2022-11-05T04:08:54.395Z,16.41
2022-11-05T04:11:39.743Z,16.31
2022-11-05T04:14:06.760Z,16.34
2022-11-05T04:16:52.010Z,16.36
2022-11-05T04:19:38.876Z,16.23
2022-11-05T04:22:24.344Z,15.93
2022-11-05T04:24:51.305Z,15.85
2022-11-05T04:27:18.241Z,16.08
2022-11-05T04:30:03.658Z,16.34
2022-11-05T04:32:30.483Z,16.31
2022-11-05T04:34:57.360Z,16.34
2022-11-05T04:37:24.242Z,16.24
2022-11-05T04:39:51.159Z,16.03
2022-11-05T04:42:18.012Z,15.92
2022-11-05T04:44:45.032Z,15.94
2022-11-05T04:47:11.960Z,15.74
2022-11-05T04:49:38.828Z,15.13
2022-11-05T04:52:05.806Z,15.26
2022-11-05T04:54:32.690Z,15.32
2022-11-05T04:56:59.631Z,15.48
2022-11-05T04:59:26.470Z,15.36
2022-11-05T05:01:53.578Z,15.48
2022-11-05T05:04:20.856Z,15.52
2022-11-05T05:06:47.734Z,15.71
2022-11-05T05:09:14.701Z,15.93
2022-11-05T05:11:41.552Z,16.07
2022-11-05T05:14:08.878Z,15.96
2022-11-05T05:16:35.730Z,15.67
2022-11-05T05:19:02.679Z,15.55
2022-11-05T05:21:41.811Z,15.99
2022-11-05T05:24:17.482Z,16.44
2022-11-05T05:26:46.688Z,16.81
2022-11-05T05:29:14.351Z,16.84
2022-11-05T05:31:42.221Z,16.83
2022-11-05T05:34:12.488Z,16.46
2022-11-05T05:36:39.486Z,16.30
2022-11-05T05:39:07.490Z,16.35
2022-11-05T05:41:34.598Z,16.47
2022-11-05T05:44:01.446Z,15.85
2022-11-05T05:46:28.317Z,15.78
2022-11-05T05:48:55.210Z,16.31
2022-11-05T05:51:22.082Z,16.65
2022-11-05T05:53:48.964Z,16.61
2022-11-05T05:56:19.325Z,16.57
2022-11-05T05:58:46.652Z,16.59
2022-11-05T06:01:19.382Z,16.49
2022-11-05T06:03:48.693Z,16.84
2022-11-05T06:06:19.841Z,16.97
2022-11-05T06:08:47.712Z,16.99
2022-11-05T06:11:15.092Z,17.12
2022-11-05T06:13:42.011Z,17.76
2022-11-05T06:16:10.133Z,18.05
2022-11-05T06:18:37.539Z,18.18
2022-11-05T06:21:13.429Z,18.15
2022-11-05T06:23:42.112Z,17.95
2022-11-05T06:26:11.819Z,17.87
2022-11-05T06:28:38.944Z,17.94
2022-11-05T06:31:06.311Z,18.00
2022-11-05T06:33:33.153Z,17.85
2022-11-05T06:36:01.797Z,17.63
2022-11-05T06:38:31.760Z,17.74
2022-11-05T06:40:59.849Z,18.16
2022-11-05T06:43:28.080Z,18.51
2022-11-05T06:45:56.122Z,18.96
2022-11-05T06:48:23.367Z,19.48
2022-11-05T06:50:50.286Z,19.98
2022-11-05T06:53:17.942Z,20.50
2022-11-05T06:55:45.091Z,21.00
2022-11-05T06:58:11.979Z,21.52
2022-11-05T07:00:38.837Z,21.52
2022-11-05T07:03:07.594Z,21.73
2022-11-05T07:05:37.464Z,21.49
2022-11-05T07:08:04.433Z,21.49
2022-11-05T07:10:31.329Z,21.31
2022-11-05T07:12:58.191Z,21.51
2022-11-05T07:15:25.112Z,21.62
2022-11-05T07:17:57.716Z,22.02
2022-11-05T07:20:28.223Z,22.14
2022-11-05T07:23:05.701Z,21.96
2022-11-05T07:25:33.985Z,21.63
2022-11-05T07:28:01.850Z,21.65
2022-11-05T07:30:31.069Z,21.84
2022-11-05T07:32:58.176Z,22.01
2022-11-05T07:35:25.367Z,21.77
2022-11-05T07:37:56.377Z,22.16
2022-11-05T07:40:25.804Z,22.48
2022-11-05T07:42:58.053Z,23.47
2022-11-05T07:45:26.336Z,24.07
2022-11-05T07:47:55.505Z,24.61
2022-11-05T07:50:24.334Z,24.74
2022-11-05T07:52:51.691Z,24.62
2022-11-05T07:55:20.924Z,24.25
2022-11-05T07:57:50.003Z,24.57
2022-11-05T08:00:24.061Z,25.33
2022-11-05T08:03:12.095Z,24.74
2022-11-05T08:05:44.627Z,25.93
2022-11-05T08:08:16.579Z,26.77
2022-11-05T08:10:43.650Z,26.12
2022-11-05T08:13:11.889Z,26.18
2022-11-05T08:15:39.784Z,26.30
2022-11-05T08:18:09.060Z,26.61
2022-11-05T08:20:37.154Z,27.69
2022-11-05T08:23:04.899Z,27.07
2022-11-05T08:25:32.384Z,26.35
2022-11-05T08:28:07.614Z,26.76
2022-11-05T08:30:35.463Z,26.23
2022-11-05T08:33:08.934Z,27.27
2022-11-05T08:35:37.645Z,27.03
2022-11-05T08:38:06.662Z,26.40
2022-11-05T08:40:35.361Z,27.00
2022-11-05T08:43:04.782Z,27.40
2022-11-05T08:45:32.097Z,26.84
2022-11-05T08:48:04.027Z,27.45
2022-11-05T08:50:31.641Z,26.72
2022-11-05T08:52:58.507Z,27.51
2022-11-05T08:55:25.916Z,26.86
2022-11-05T08:57:57.411Z,26.94
2022-11-05T09:00:25.433Z,28.04
2022-11-05T09:02:52.291Z,27.60
2022-11-05T09:05:19.468Z,27.58
2022-11-05T09:07:46.941Z,27.62
2022-11-05T09:10:13.888Z,26.51
2022-11-05T09:12:40.828Z,27.36
2022-11-05T09:15:08.238Z,27.31
2022-11-05T09:17:35.252Z,28.24
2022-11-05T09:20:03.820Z,27.08
2022-11-05T09:22:30.926Z,26.88
2022-11-05T09:24:57.801Z,26.97
2022-11-05T09:27:24.649Z,27.62
2022-11-05T09:29:51.534Z,27.46
2022-11-05T09:32:19.447Z,27.88
2022-11-05T09:34:48.579Z,26.86
2022-11-05T09:37:15.671Z,28.64
2022-11-05T09:39:42.534Z,28.32
2022-11-05T09:42:13.925Z,27.32
2022-11-05T09:44:52.466Z,27.86
2022-11-05T09:47:25.282Z,27.54
2022-11-05T09:49:54.878Z,27.27
2022-11-05T09:52:25.800Z,26.42
2022-11-05T09:54:54.382Z,26.11
2022-11-05T09:57:32.940Z,25.53
2022-11-05T10:00:04.645Z,24.69
2022-11-05T10:02:46.214Z,24.69
2022-11-05T10:05:14.957Z,25.50
2022-11-05T10:07:55.922Z,25.10
2022-11-05T10:10:28.701Z,24.84
2022-11-05T10:13:01.284Z,24.28
2022-11-05T10:15:43.254Z,23.88
2022-11-05T10:18:35.099Z,23.92
2022-11-05T10:21:02.418Z,23.63
2022-11-05T10:23:29.694Z,23.56
2022-11-05T10:26:07.808Z,23.67
2022-11-05T10:28:35.813Z,23.61
2022-11-05T10:31:06.432Z,23.39
2022-11-05T10:33:48.599Z,23.44
2022-11-05T10:36:22.630Z,23.71
2022-11-05T10:38:50.533Z,23.24
2022-11-05T10:41:32.782Z,23.34
2022-11-05T10:44:25.788Z,23.73
2022-11-05T10:47:10.758Z,24.78
2022-11-05T10:49:55.698Z,23.63
2022-11-05T10:52:27.092Z,23.59
2022-11-05T10:54:58.791Z,23.16
2022-11-05T10:57:30.835Z,23.41
2022-11-05T11:00:16.183Z,23.63
2022-11-05T11:02:52.795Z,23.75
2022-11-05T11:05:27.862Z,23.67
2022-11-05T11:08:09.269Z,23.42
2022-11-05T11:10:50.234Z,23.23
2022-11-05T11:13:29.360Z,23.45
2022-11-05T11:16:14.883Z,23.54
2022-11-05T11:18:43.661Z,23.91
2022-11-05T11:21:17.755Z,24.07
2022-11-05T11:23:54.868Z,25.53
2022-11-05T11:26:24.615Z,24.61
2022-11-05T11:29:00.138Z,25.10
2022-11-05T11:31:30.667Z,24.39
2022-11-05T11:34:03.362Z,23.79
2022-11-05T11:36:41.458Z,23.38
2022-11-05T11:39:25.186Z,23.29
2022-11-05T11:41:56.219Z,23.67
2022-11-05T11:44:29.673Z,24.08
2022-11-05T11:47:05.134Z,23.74
2022-11-05T11:49:45.630Z,24.10
2022-11-05T11:52:30.818Z,24.19
2022-11-05T11:55:13.005Z,24.11
2022-11-05T11:57:52.005Z,24.09
2022-11-05T12:00:21.999Z,24.25
2022-11-05T12:03:41.552Z,24.39
2022-11-05T12:06:14.223Z,24.79
2022-11-05T12:08:58.132Z,24.51
2022-11-05T12:12:06.044Z,23.72
2022-11-05T12:14:56.462Z,23.81
2022-11-05T12:17:50.219Z,24.35
2022-11-05T12:20:31.128Z,24.32
2022-11-05T12:23:38.974Z,24.30
2022-11-05T12:26:20.697Z,23.30
2022-11-05T12:29:18.585Z,23.44
2022-11-05T12:31:48.683Z,23.05
2022-11-05T12:34:37.308Z,23.22
2022-11-05T12:37:28.988Z,22.85
2022-11-05T12:40:32.892Z,22.78
2022-11-05T12:43:38.278Z,23.09
2022-11-05T12:46:23.651Z,22.55
2022-11-05T12:48:56.460Z,22.42
2022-11-05T12:51:41.241Z,22.51
2022-11-05T12:54:16.420Z,22.26
2022-11-05T12:56:50.898Z,22.34
2022-11-05T12:59:20.474Z,21.91
2022-11-05T13:01:53.866Z,22.24
2022-11-05T13:04:40.462Z,22.78
2022-11-05T13:07:11.801Z,22.56
2022-11-05T13:09:57.290Z,23.27
2022-11-05T13:12:27.763Z,23.16
2022-11-05T13:15:02.211Z,23.44
2022-11-05T13:17:48.945Z,23.22
2022-11-05T13:20:21.418Z,23.40
2022-11-05T13:23:07.275Z,22.45
2022-11-05T13:25:40.775Z,21.95
2022-11-05T13:28:33.622Z,21.30
2022-11-05T13:31:03.556Z,20.57
2022-11-05T13:33:45.652Z,20.69
2022-11-05T13:36:32.916Z,20.60
2022-11-05T13:39:19.646Z,20.82
2022-11-05T13:42:01.605Z,21.80
2022-11-05T13:44:59.602Z,22.21
2022-11-05T13:47:57.440Z,21.95
2022-11-05T13:50:27.218Z,22.11
2022-11-05T13:53:09.174Z,22.54
2022-11-05T13:56:00.687Z,22.79
2022-11-05T13:58:53.811Z,20.61
2022-11-05T14:01:35.580Z,19.68
2022-11-05T14:04:03.689Z,19.38
2022-11-05T14:06:34.848Z,19.40
2022-11-05T14:09:11.175Z,18.87
2022-11-05T14:11:42.699Z,18.82
2022-11-05T14:14:22.645Z,18.65
2022-11-05T14:16:55.355Z,18.55
2022-11-05T14:19:33.505Z,18.35
2022-11-05T14:22:20.557Z,18.26
2022-11-05T14:24:48.042Z,18.22
2022-11-05T14:27:15.038Z,17.99
2022-11-05T14:29:44.065Z,17.90
2022-11-05T14:32:17.099Z,17.90
2022-11-05T14:35:13.124Z,17.96
2022-11-05T14:37:42.180Z,17.57
2022-11-05T14:40:36.456Z,17.41
2022-11-05T14:43:05.656Z,17.49
2022-11-05T14:45:37.073Z,17.45
2022-11-05T14:48:07.460Z,17.58
2022-11-05T14:50:41.316Z,17.77
2022-11-05T14:53:25.383Z,17.25
2022-11-05T14:56:17.443Z,16.96
2022-11-05T14:58:46.155Z,17.21
2022-11-05T15:01:15.934Z,16.98
2022-11-05T15:03:46.528Z,16.84
2022-11-05T15:06:31.338Z,16.55
2022-11-05T15:09:25.705Z,16.60
2022-11-05T15:12:02.822Z,16.72
2022-11-05T15:14:42.343Z,16.91
2022-11-05T15:17:22.160Z,16.52
2022-11-05T15:19:50.769Z,16.62
2022-11-05T15:22:30.932Z,16.50
2022-11-05T15:24:58.467Z,16.56
2022-11-05T15:27:48.443Z,16.61
2022-11-05T15:30:21.178Z,16.32
2022-11-05T15:32:48.389Z,16.33
2022-11-05T15:35:27.101Z,16.35
2022-11-05T15:38:01.834Z,16.17
2022-11-05T15:40:33.162Z,16.10
2022-11-05T15:43:17.806Z,16.23
2022-11-05T15:45:57.164Z,16.34
2022-11-05T15:48:24.047Z,16.28
2022-11-05T15:50:51.368Z,16.06
2022-11-05T15:53:47.520Z,16.09
2022-11-05T15:56:28.601Z,16.35
2022-11-05T15:59:04.126Z,16.42
2022-11-05T16:01:37.184Z,16.47
2022-11-05T16:04:16.413Z,16.41
2022-11-05T16:06:47.332Z,16.66
2022-11-05T16:09:26.217Z,16.66
2022-11-05T16:12:20.847Z,17.17
2022-11-05T16:14:59.916Z,17.34
2022-11-05T16:17:31.435Z,17.71
2022-11-05T16:19:58.798Z,17.87
2022-11-05T16:22:26.451Z,17.94
2022-11-05T16:24:53.320Z,17.84
2022-11-05T16:27:22.214Z,17.85
2022-11-05T16:29:54.660Z,17.86
2022-11-05T16:32:31.105Z,17.88
2022-11-05T16:35:04.353Z,17.81
2022-11-05T16:37:40.088Z,17.58
2022-11-05T16:40:14.632Z,17.74
2022-11-05T16:42:42.488Z,17.73
2022-11-05T16:45:14.860Z,17.64
2022-11-05T16:47:43.309Z,17.61
2022-11-05T16:50:26.777Z,17.54
2022-11-05T16:52:53.864Z,17.71
2022-11-05T16:55:21.154Z,17.79
2022-11-05T16:57:52.101Z,17.37
2022-11-05T17:00:20.680Z,16.84
2022-11-05T17:02:48.157Z,16.58
2022-11-05T17:05:19.946Z,16.52
2022-11-05T17:07:47.343Z,16.64
2022-11-05T17:10:14.719Z,16.80
2022-11-05T17:12:42.751Z,16.67
2022-11-05T17:15:15.684Z,16.44
2022-11-05T17:17:42.535Z,16.71
2022-11-05T17:20:19.547Z,16.59
2022-11-05T17:22:46.486Z,16.40
2022-11-05T17:25:13.282Z,16.52
2022-11-05T17:27:40.152Z,16.74
2022-11-05T17:30:07.916Z,16.86
2022-11-05T17:32:34.754Z,17.04
2022-11-05T17:35:01.744Z,16.75
2022-11-05T17:37:28.667Z,16.66
2022-11-05T17:39:55.636Z,16.31
2022-11-05T17:42:22.543Z,16.52
2022-11-05T17:44:49.478Z,16.32
2022-11-05T17:47:16.375Z,16.13
2022-11-05T17:49:43.200Z,16.02
2022-11-05T17:52:10.660Z,16.19
2022-11-05T17:54:37.679Z,16.24
2022-11-05T17:57:05.644Z,16.38
2022-11-05T17:59:32.918Z,16.24
2022-11-05T18:02:00.057Z,16.53
2022-11-05T18:04:27.092Z,16.72
2022-11-05T18:07:55.682Z,16.12
2022-11-05T18:10:23.052Z,15.71
2022-11-05T18:12:54.480Z,15.69
2022-11-05T18:15:21.873Z,15.60
2022-11-05T18:17:49.154Z,15.70
2022-11-05T18:20:19.359Z,15.90
2022-11-05T18:22:49.764Z,15.89
2022-11-05T18:25:17.990Z,16.18
2022-11-05T18:27:45.332Z,16.52
2022-11-05T18:30:15.670Z,16.71
2022-11-05T18:32:44.071Z,16.33
2022-11-05T18:35:12.122Z,16.08
2022-11-05T18:37:39.441Z,15.62
2022-11-05T18:40:10.755Z,15.46
2022-11-05T18:42:38.212Z,15.45
2022-11-05T18:45:08.881Z,15.49
2022-11-05T18:47:36.234Z,15.56
2022-11-05T18:50:40.241Z,15.65
2022-11-05T18:53:09.263Z,15.58
2022-11-05T18:55:39.303Z,15.64
2022-11-05T18:58:06.315Z,15.68
2022-11-05T19:00:33.274Z,15.83
2022-11-05T19:03:00.527Z,16.24
2022-11-05T19:05:29.450Z,16.44
2022-11-05T19:07:56.951Z,16.47
2022-11-05T19:11:00.191Z,15.96
2022-11-05T19:13:27.182Z,15.78
2022-11-05T19:15:58.139Z,15.79
2022-11-05T19:18:25.284Z,15.83
2022-11-05T19:20:58.351Z,15.85
2022-11-05T19:23:25.534Z,15.64
2022-11-05T19:27:22.564Z,15.85
2022-11-05T19:30:00.890Z,16.00
2022-11-05T19:32:27.846Z,16.12
2022-11-05T19:34:55.035Z,15.89
2022-11-05T19:37:25.894Z,15.86
2022-11-05T19:39:55.366Z,15.70
2022-11-05T19:42:22.384Z,15.76
2022-11-05T19:44:49.301Z,15.76
2022-11-05T19:47:16.201Z,15.78
2022-11-05T19:49:43.253Z,15.65
2022-11-05T19:52:10.297Z,15.88
2022-11-05T19:54:37.565Z,16.13
2022-11-05T19:57:06.435Z,16.25
2022-11-05T20:00:07.259Z,15.86
2022-11-05T20:02:37.602Z,15.73
2022-11-05T20:05:05.027Z,16.01
2022-11-05T20:07:31.962Z,16.00
2022-11-05T20:09:58.833Z,16.15
2022-11-05T20:12:25.864Z,15.95
2022-11-05T20:14:52.756Z,16.34
2022-11-05T20:17:23.605Z,16.45
2022-11-05T20:19:51.004Z,16.36
2022-11-05T20:22:17.962Z,16.22
2022-11-05T20:24:45.232Z,16.41
2022-11-05T20:27:12.155Z,16.36
2022-11-05T20:29:39.209Z,15.90
2022-11-05T20:32:07.903Z,15.68
2022-11-05T20:34:35.183Z,15.98
2022-11-05T20:37:02.560Z,16.08
2022-11-05T20:39:30.043Z,15.90
2022-11-05T20:41:57.248Z,15.69
2022-11-05T20:44:27.110Z,15.50
2022-11-05T20:46:57.926Z,15.45
2022-11-05T20:49:25.865Z,15.56
2022-11-05T20:51:53.462Z,15.59
2022-11-05T20:54:20.704Z,15.56
2022-11-05T20:56:47.847Z,15.87
2022-11-05T20:59:14.977Z,16.05
2022-11-05T21:01:41.968Z,15.04
2022-11-05T21:04:09.095Z,14.85
2022-11-05T21:06:36.176Z,15.11
2022-11-05T21:09:06.082Z,15.32
2022-11-05T21:11:54.935Z,15.15
2022-11-05T21:14:21.941Z,15.00
2022-11-05T21:16:48.858Z,15.19
2022-11-05T21:19:15.991Z,15.07
2022-11-05T21:21:42.887Z,14.86
2022-11-05T21:24:09.793Z,14.96
2022-11-05T21:26:37.031Z,15.00
2022-11-05T21:29:04.080Z,15.19
2022-11-05T21:31:30.994Z,14.98
2022-11-05T21:34:00.971Z,14.99
2022-11-05T21:36:27.889Z,15.14
2022-11-05T21:38:55.096Z,15.20
2022-11-05T21:41:27.875Z,15.27
2022-11-05T21:43:54.944Z,15.01
2022-11-05T21:46:21.848Z,14.51
2022-11-05T21:48:58.591Z,14.62
2022-11-05T21:51:44.229Z,14.89
2022-11-05T21:54:30.173Z,15.12
2022-11-05T21:57:27.022Z,15.05
2022-11-05T21:59:57.724Z,15.39
2022-11-05T22:02:28.474Z,15.52
2022-11-05T22:04:57.752Z,15.35
2022-11-05T22:07:36.539Z,15.27
2022-11-05T22:10:19.919Z,15.26
2022-11-05T22:12:47.064Z,15.21
2022-11-05T22:15:15.857Z,15.25
2022-11-05T22:17:47.204Z,15.33
2022-11-05T22:20:15.054Z,15.10
2022-11-05T22:22:42.136Z,15.18
2022-11-05T22:25:18.172Z,15.37
2022-11-05T22:28:05.260Z,15.58
2022-11-05T22:30:39.645Z,15.77
2022-11-05T22:33:12.194Z,15.85
2022-11-05T22:35:46.763Z,15.82
2022-11-05T22:38:19.774Z,15.71
2022-11-05T22:40:58.916Z,15.67
2022-11-05T22:43:39.129Z,15.85
2022-11-05T22:46:28.605Z,16.10
2022-11-05T22:49:32.957Z,15.80
2022-11-05T22:52:09.909Z,15.72
2022-11-05T22:55:13.833Z,15.75
2022-11-05T22:57:41.079Z,15.40
2022-11-05T23:00:15.377Z,14.93
2022-11-05T23:02:42.778Z,15.12
2022-11-05T23:05:10.539Z,15.16
2022-11-05T23:08:00.404Z,15.31
2022-11-05T23:10:45.825Z,15.67
2022-11-05T23:13:23.986Z,15.75
2022-11-05T23:16:12.592Z,15.68
2022-11-05T23:18:58.199Z,15.67
2022-11-05T23:21:43.427Z,15.66
2022-11-05T23:24:12.670Z,15.62
2022-11-05T23:26:52.235Z,15.59
2022-11-05T23:29:24.057Z,15.30
2022-11-05T23:32:10.594Z,15.14
2022-11-05T23:34:38.370Z,15.20
2022-11-05T23:37:24.311Z,15.53
2022-11-05T23:39:51.656Z,15.54
2022-11-05T23:42:38.864Z,15.36
2022-11-05T23:45:42.766Z,15.16
2022-11-05T23:48:26.763Z,15.16
2022-11-05T23:51:14.095Z,15.14
2022-11-05T23:53:44.222Z,15.11
2022-11-05T23:56:15.487Z,14.99
2022-11-05T23:58:43.229Z,14.40
